Bridgeport, NE (69336)

7:57 PM MDT on August 20, 2014 (GMT -0600)
The Clinger Family | Change Station
CLOSE
Current Station
Personal Weather Station
Location: Bridgeport, NE
Elevation: 3666 ft
Nearby Weather Stations

Elev 3666 ft 41.66 °N, 103.10 °W | Updated 4 minutes ago

Clear
Clear
76.0 °F
Feels Like 78 °F
N
1.0
Wind Variable Wind from SSW

Today
High -- | Low -- °F
--% Chance of Precip.
Yesterday
High -- | Low -- °F
Precip. -- in
6:05 AM 7:44 PM
Waning Crescent, 17% visible
Pressure 29.65 in
Visibility 10.0 miles
Clouds Clear
Heat Index 78 °F
Dew Point 59 °F
Humidity 55%
Rainfall 0.00 in
Snow Depth Not available.
UV 0.0 out of 12
Pollen 9.40 out of 12
Air Quality Not available.
Flu Activity Not available.
METAR KAIA 210053Z AUTO 25010KT 10SM CLR 32/07 A2980 RMK AO2 SLP040 T03170067

More Conditions Fewer Conditions

Pressure 29.65 in
Visibility 10.0 miles
Clouds Clear
Heat Index 78 °F
Dew Point 59 °F
Humidity 55%
Rainfall 0.00 in
Snow Depth Not available.
UV 0.0 out of 12
Pollen 9.40 out of 12
Air Quality Not available.
Flu Activity Not available.
METAR KAIA 210053Z AUTO 25010KT 10SM CLR 32/07 A2980 RMK AO2 SLP040 T03170067

More Conditions Fewer Conditions

10-Day Weather Forecast

Almanac

Astronomy

Aug. 20, 2014 Rise Set
Actual Time 6:05 AM MDT 7:44 PM MDT
Civil Twilight 5:36 AM MDT 8:13 PM MDT
Nautical Twilight 5:00 AM MDT 8:49 PM MDT
Astronomical Twilight 4:22 AM MDT 9:27 PM MDT
Moon 1:46 AM MDT (8/20) 4:32 PM MDT (8/20)
Length of Visible Light 14h 37m
Length of Day
13h 38m
Tomorrow will be 2m 33s shorter.
Waning Crescent, 17% of the Moon is Illuminated
Today
Waning Crescent
Aug 25
New
Sep 2
First Quarter
Sep 8
Full
Sep 15
Last Quarter

Today's Extremes

State Highs State Lows

Community

WunderPhotos

Upload Photos

1,745,859 photos uploaded!

WunderBlogs® & News

Nearby

Snow Depth

Station Depth Elevation
No new snow has been reported.

Earthquake Activity

City Distance Mag. Time & Date
No recent earthquake activity has been reported nearby.
Minimum magnitude displayed is 2.5.

Coastal Water Temperatures

Place Temperature
No Stations Reporting

Nearby Weather Stations